createdAt,value
2023-03-16T07:17:12.654Z,39.05
2023-03-16T08:38:08.307Z,42.48
2023-03-16T08:40:48.918Z,42.35
2023-03-16T08:43:27.278Z,42.67
2023-03-16T08:45:58.406Z,42.30
2023-03-16T08:48:38.532Z,42.50
2023-03-16T08:51:07.404Z,42.66
2023-03-16T08:53:37.135Z,42.81
2023-03-16T08:56:15.679Z,42.76
2023-03-16T08:58:50.549Z,42.83
2023-03-16T09:01:25.993Z,42.51
2023-03-16T09:03:55.528Z,42.92
2023-03-16T09:06:23.079Z,42.88
2023-03-16T09:08:54.180Z,42.73
2023-03-16T09:11:22.424Z,42.87
2023-03-16T09:14:02.721Z,42.86
2023-03-16T09:16:36.716Z,42.92
2023-03-16T09:19:07.626Z,42.93
2023-03-16T09:21:37.409Z,42.92
2023-03-16T09:24:11.748Z,42.93
2023-03-16T09:29:22.674Z,42.99
2023-03-16T09:31:50.940Z,42.80
2023-03-16T09:36:54.234Z,42.92
2023-03-16T09:39:26.266Z,43.01
2023-03-16T09:42:38.805Z,43.07
2023-03-16T09:45:23.004Z,43.03
2023-03-16T09:47:59.148Z,42.93
2023-03-16T09:50:47.163Z,43.19
2023-03-16T09:53:36.126Z,43.12
2023-03-16T09:56:27.609Z,43.23
2023-03-16T09:58:57.401Z,43.13
2023-03-16T10:02:03.000Z,43.31
2023-03-16T10:05:15.033Z,43.45
2023-03-16T10:08:11.208Z,43.29
2023-03-16T10:10:38.552Z,43.17
2023-03-16T10:13:37.918Z,43.20
2023-03-16T10:16:38.156Z,43.34
2023-03-16T10:19:27.755Z,43.10
2023-03-16T10:22:00.601Z,43.26
2023-03-16T10:24:53.100Z,43.30
2023-03-16T10:27:36.815Z,43.34
2023-03-16T10:30:19.692Z,43.28
2023-03-16T10:32:49.599Z,43.32
2023-03-16T10:35:49.299Z,43.28
2023-03-16T10:38:46.844Z,43.41
2023-03-16T10:41:25.455Z,43.30
2023-03-16T10:44:09.121Z,43.61
2023-03-16T10:47:04.933Z,43.47
2023-03-16T10:49:48.811Z,43.55
2023-03-16T10:52:50.745Z,43.32
2023-03-16T10:55:26.232Z,43.53
2023-03-16T10:58:01.305Z,43.45
2023-03-16T11:00:38.489Z,43.42
2023-03-16T11:03:28.605Z,43.49
2023-03-16T11:06:04.416Z,43.55
2023-03-16T11:08:36.549Z,43.39
2023-03-16T11:11:16.902Z,43.49
2023-03-16T11:13:49.114Z,43.58
2023-03-16T11:16:28.303Z,43.63
2023-03-16T11:19:00.236Z,43.72
2023-03-16T11:21:59.454Z,43.63
2023-03-16T11:24:56.751Z,43.56
2023-03-16T11:27:34.570Z,43.47
2023-03-16T11:30:36.697Z,43.72
2023-03-16T11:33:14.944Z,43.45
2023-03-16T11:36:13.502Z,43.84
2023-03-16T11:38:48.622Z,43.66
2023-03-16T11:41:32.193Z,43.54
2023-03-16T11:44:33.238Z,43.65
2023-03-16T11:47:28.077Z,43.67
2023-03-16T11:50:08.802Z,43.84
2023-03-16T11:53:03.057Z,43.77
2023-03-16T11:56:00.273Z,43.54
2023-03-16T11:59:11.542Z,43.72
2023-03-16T12:01:45.155Z,43.77
2023-03-16T12:04:48.876Z,43.91
2023-03-16T12:07:19.484Z,44.01
2023-03-16T12:10:00.262Z,43.96
2023-03-16T12:12:39.829Z,43.93
2023-03-16T12:15:29.082Z,43.98
2023-03-16T12:18:26.184Z,44.07
2023-03-16T12:21:08.868Z,43.85
2023-03-16T12:24:11.015Z,44.01
2023-03-16T12:26:42.646Z,44.19
2023-03-16T12:29:19.844Z,44.19
2023-03-16T12:31:59.931Z,44.04
2023-03-16T12:34:39.484Z,44.14
2023-03-16T12:37:16.028Z,44.02
2023-03-16T12:39:58.209Z,44.09
2023-03-16T12:43:03.793Z,44.19
2023-03-16T12:45:54.501Z,44.32
2023-03-16T12:48:40.840Z,44.29
2023-03-16T12:53:51.760Z,44.13
2023-03-16T12:56:37.773Z,44.47
2023-03-16T12:59:15.601Z,44.45
2023-03-16T13:01:57.040Z,44.43
2023-03-16T13:04:34.058Z,44.47
2023-03-16T13:07:15.186Z,44.52
2023-03-16T13:09:48.471Z,44.46
2023-03-16T13:12:28.020Z,44.68
2023-03-16T13:14:56.954Z,44.35
2023-03-16T13:17:36.671Z,44.97
2023-03-16T13:20:38.841Z,44.81
2023-03-16T13:23:23.718Z,44.61
2023-03-16T13:26:15.314Z,44.94
2023-03-16T13:28:51.174Z,45.16
2023-03-16T13:31:28.809Z,44.94
2023-03-16T13:34:01.327Z,44.80
2023-03-16T13:36:33.591Z,44.95
2023-03-16T13:39:22.527Z,44.87
2023-03-16T13:42:11.275Z,44.95
2023-03-16T13:44:43.653Z,45.02
2023-03-16T13:47:19.994Z,45.06
2023-03-16T13:49:56.472Z,45.13
2023-03-16T13:52:30.353Z,45.20
2023-03-16T13:55:09.901Z,45.11
2023-03-16T13:57:41.712Z,45.23
2023-03-16T14:00:27.979Z,45.33
2023-03-16T14:03:00.355Z,45.39
2023-03-16T14:05:39.606Z,45.50
2023-03-16T14:08:22.184Z,45.15
2023-03-16T14:10:53.528Z,45.57
2023-03-16T14:13:36.606Z,45.49
2023-03-16T14:16:17.788Z,45.52
2023-03-16T14:18:58.784Z,45.66
2023-03-16T14:21:30.229Z,45.50
2023-03-16T14:24:10.517Z,45.72
2023-03-16T14:26:49.277Z,45.83
2023-03-16T14:29:31.355Z,45.59
2023-03-16T14:32:00.394Z,45.63
2023-03-16T14:34:44.897Z,45.61
2023-03-16T14:37:19.533Z,45.78
2023-03-16T14:40:03.924Z,45.85
2023-03-16T14:42:36.693Z,45.97
2023-03-16T14:45:11.222Z,45.78
2023-03-16T14:47:47.177Z,45.86
2023-03-16T14:50:34.043Z,46.12
2023-03-16T14:53:03.896Z,46.11
2023-03-16T14:55:34.811Z,45.89
2023-03-16T14:58:05.743Z,45.96
2023-03-16T15:00:50.234Z,46.13
2023-03-16T15:03:24.177Z,45.96
2023-03-16T15:05:52.530Z,46.40
2023-03-16T15:08:27.910Z,46.13
2023-03-16T15:11:21.657Z,46.15
2023-03-16T15:13:49.762Z,46.14
2023-03-16T15:16:17.590Z,45.94
2023-03-16T15:18:52.454Z,46.02
2023-03-16T15:21:31.100Z,45.85
2023-03-16T15:24:04.084Z,45.83
2023-03-16T15:26:42.408Z,45.96
2023-03-16T15:29:15.758Z,45.73
2023-03-16T15:31:44.089Z,45.61
2023-03-16T15:34:14.499Z,45.50
2023-03-16T15:36:42.842Z,45.34
2023-03-16T15:39:23.792Z,44.96
2023-03-16T15:42:06.482Z,44.92
2023-03-16T15:44:35.486Z,44.83
2023-03-16T15:47:05.635Z,44.46
2023-03-16T15:49:47.724Z,44.46
2023-03-16T15:52:32.819Z,44.16
2023-03-16T15:55:04.809Z,44.01
2023-03-16T15:57:33.414Z,43.70
2023-03-16T16:00:04.659Z,43.68
2023-03-16T16:02:37.853Z,43.49
2023-03-16T16:05:06.225Z,43.19
2023-03-16T16:07:39.812Z,43.22
2023-03-16T16:10:14.424Z,42.99
2023-03-16T16:12:51.242Z,43.19
2023-03-16T16:15:20.337Z,42.87
2023-03-16T16:18:19.411Z,42.75
2023-03-16T16:20:42.990Z,42.71
2023-03-16T16:23:10.599Z,42.69
2023-03-16T16:25:42.205Z,42.63
2023-03-16T16:28:23.724Z,42.67
2023-03-16T16:30:52.569Z,42.80
2023-03-16T16:33:32.814Z,42.83
2023-03-16T16:36:09.466Z,43.15
2023-03-16T16:38:40.729Z,42.86
2023-03-16T16:41:10.696Z,42.98
2023-03-16T16:43:42.380Z,43.34
2023-03-16T16:46:24.592Z,43.25
2023-03-16T16:49:03.444Z,43.63
2023-03-16T16:51:34.302Z,44.00
2023-03-16T16:54:06.003Z,44.51
2023-03-16T16:56:42.264Z,44.86
2023-03-16T16:59:21.121Z,45.11
2023-03-16T17:01:58.531Z,45.27
2023-03-16T17:04:29.619Z,45.69
2023-03-16T17:07:00.962Z,45.61
2023-03-16T17:09:29.180Z,46.09
2023-03-16T17:12:01.371Z,46.33
2023-03-16T17:14:31.911Z,46.30
2023-03-16T17:17:07.711Z,46.77
2023-03-16T17:19:36.908Z,46.83
2023-03-16T17:22:06.609Z,46.97
2023-03-16T17:24:37.286Z,47.10
2023-03-16T17:27:04.836Z,47.35
2023-03-16T17:29:34.962Z,47.71
2023-03-16T17:32:14.594Z,48.28
2023-03-16T17:34:45.540Z,48.78
2023-03-16T17:37:21.217Z,49.01
2023-03-16T17:39:57.877Z,49.38
2023-03-16T17:42:28.184Z,49.57
2023-03-16T17:44:57.602Z,49.23
2023-03-16T17:47:33.292Z,50.00
2023-03-16T17:50:06.044Z,49.94
2023-03-16T17:52:40.647Z,49.81
2023-03-16T17:55:08.382Z,49.78
2023-03-16T17:57:37.385Z,49.87
2023-03-16T18:00:21.830Z,50.08
2023-03-16T18:02:57.617Z,50.16
2023-03-16T18:05:31.698Z,50.20
2023-03-16T18:08:29.096Z,50.00
2023-03-16T18:11:07.404Z,50.15
2023-03-16T18:14:01.029Z,49.97
2023-03-16T18:16:51.256Z,50.23
2023-03-16T18:19:32.250Z,50.11
2023-03-16T18:22:01.438Z,50.11
2023-03-16T18:24:29.151Z,50.22
2023-03-16T18:27:10.686Z,50.31
2023-03-16T18:29:42.279Z,50.28
2023-03-16T18:32:24.262Z,50.37
2023-03-16T18:34:54.509Z,50.37
2023-03-16T18:37:31.590Z,50.50
2023-03-16T18:40:01.952Z,50.41
2023-03-16T18:42:32.024Z,50.51
2023-03-16T18:45:09.224Z,50.62
2023-03-16T18:47:46.990Z,50.82
2023-03-16T18:50:27.543Z,50.73
2023-03-16T18:53:01.946Z,50.91
2023-03-16T18:55:39.651Z,51.02
2023-03-16T19:01:04.088Z,50.94
2023-03-16T19:03:42.550Z,50.87
2023-03-16T19:06:21.265Z,50.99
2023-03-16T19:08:54.321Z,50.87
2023-03-16T19:11:24.087Z,51.02
2023-03-16T19:13:57.518Z,50.99
2023-03-16T19:16:27.902Z,51.07
2023-03-16T19:18:56.051Z,51.10
2023-03-16T19:21:33.021Z,51.06
2023-03-16T19:24:17.475Z,51.20
2023-03-16T19:26:45.420Z,51.20
2023-03-16T19:29:14.341Z,51.27
2023-03-16T19:31:48.177Z,51.32
2023-03-16T19:34:22.142Z,51.36
2023-03-16T19:36:51.411Z,51.39
2023-03-16T19:39:23.715Z,51.65
2023-03-16T19:41:59.076Z,51.40
2023-03-16T19:44:29.250Z,51.35
2023-03-16T19:46:56.723Z,51.33
2023-03-16T19:49:32.495Z,51.45
2023-03-16T19:52:03.440Z,51.39
2023-03-16T19:54:35.315Z,51.41
2023-03-16T19:57:12.799Z,51.52
2023-03-16T19:59:44.144Z,51.75
2023-03-16T20:02:24.939Z,51.66
2023-03-16T20:04:55.957Z,51.79
2023-03-16T20:07:31.524Z,51.74
2023-03-16T20:10:01.971Z,51.64
2023-03-16T20:12:32.926Z,51.86
2023-03-16T20:15:04.350Z,51.90
2023-03-16T20:17:35.811Z,51.81
2023-03-16T20:20:18.973Z,51.68
2023-03-16T20:22:54.814Z,51.89
2023-03-16T20:25:32.345Z,52.31
2023-03-16T20:28:02.131Z,52.03
2023-03-16T20:30:38.682Z,51.79
2023-03-16T20:33:12.873Z,51.96
2023-03-16T20:35:40.304Z,51.99
2023-03-16T20:38:22.374Z,52.12
2023-03-16T20:40:54.798Z,51.91
2023-03-16T20:43:34.185Z,52.11
2023-03-16T20:46:05.434Z,52.03
2023-03-16T20:48:33.088Z,51.95
2023-03-16T20:51:00.765Z,52.08
2023-03-16T20:53:29.063Z,52.16
2023-03-16T20:55:56.949Z,52.22
2023-03-16T20:58:38.675Z,52.16
2023-03-16T21:01:17.745Z,52.26
2023-03-16T21:03:54.021Z,52.15
2023-03-16T21:06:34.948Z,52.21
2023-03-16T21:09:04.745Z,52.24
2023-03-16T21:11:37.779Z,52.35
2023-03-16T21:14:14.461Z,52.26
2023-03-16T21:16:45.095Z,52.21
2023-03-16T21:19:24.016Z,52.24
2023-03-16T21:21:54.584Z,52.43
2023-03-16T21:24:25.629Z,52.40
2023-03-16T21:26:54.055Z,52.44
2023-03-16T21:29:22.108Z,52.38
2023-03-16T21:31:53.987Z,52.34
2023-03-16T21:34:28.713Z,52.19
2023-03-16T21:36:59.934Z,52.33
2023-03-16T21:39:29.682Z,52.20
2023-03-16T21:41:58.548Z,52.29
2023-03-16T21:44:36.555Z,52.39
2023-03-16T21:47:21.654Z,52.64
2023-03-16T21:49:59.019Z,52.16
2023-03-16T21:52:30.312Z,52.45
2023-03-16T21:55:02.502Z,52.65
2023-03-16T21:57:31.768Z,52.52
2023-03-16T22:00:07.193Z,52.45
2023-03-16T22:02:41.031Z,52.68
2023-03-16T22:05:45.168Z,52.50
2023-03-16T22:08:22.885Z,52.54
2023-03-16T22:10:54.031Z,52.57
2023-03-16T22:13:22.251Z,52.45
2023-03-16T22:15:52.928Z,51.98
2023-03-16T22:18:28.946Z,51.28
2023-03-16T22:21:37.876Z,50.82
2023-03-16T22:24:24.308Z,50.18
2023-03-16T22:26:55.372Z,49.61
2023-03-16T22:29:34.879Z,49.15
2023-03-16T22:32:18.426Z,48.90
2023-03-16T22:34:57.480Z,48.49
2023-03-16T22:37:29.818Z,48.27
2023-03-16T22:40:03.037Z,48.14
2023-03-16T22:42:39.040Z,48.00
2023-03-16T22:45:26.322Z,47.81
2023-03-16T22:48:03.783Z,47.68
2023-03-16T22:50:33.838Z,47.53
2023-03-16T22:53:04.725Z,47.17
2023-03-16T22:55:43.731Z,46.97
2023-03-16T22:58:39.227Z,46.85
2023-03-16T23:01:20.234Z,46.77
2023-03-16T23:03:52.227Z,46.93
2023-03-16T23:06:26.434Z,46.81
2023-03-16T23:08:56.401Z,46.89
2023-03-16T23:11:33.079Z,46.93
2023-03-16T23:14:03.621Z,47.13
2023-03-16T23:16:37.700Z,47.37
2023-03-16T23:19:22.241Z,47.65
2023-03-16T23:22:00.968Z,47.65
2023-03-16T23:24:31.512Z,47.86
2023-03-16T23:27:05.808Z,48.14
2023-03-16T23:29:33.116Z,48.15
2023-03-16T23:32:05.551Z,48.26
2023-03-16T23:34:35.512Z,48.58
2023-03-16T23:37:05.783Z,48.83
2023-03-16T23:39:46.056Z,48.75
2023-03-16T23:42:21.160Z,49.01
2023-03-16T23:44:49.836Z,49.09
2023-03-16T23:47:19.160Z,49.47
2023-03-16T23:49:55.978Z,49.51
2023-03-16T23:52:24.500Z,49.53
2023-03-16T23:54:53.676Z,49.54
2023-03-16T23:57:23.295Z,49.66
2023-03-16T23:59:54.111Z,49.16
